Time;durP1;ratioP1;P1;durP2;ratioP2;P2;SDS_P1;SDS_P2;PMS_P1;PMS_P2;Temp;Humidity;BMP_temperature;BMP_pressure;BME280_temperature;BME280_humidity;BME280_pressure;Samples;Min_cycle;Max_cycle;Signal;HPM_P1;HPM_P2
2023/02/08 00:00:55;;;;;;;4.07;3.70;;;;;;;;;;5076526;28;20551;-47
2023/02/08 00:03:26;;;;;;;4.73;3.80;;;;;;;;;;5077329;28;20211;-47
2023/02/08 00:06:00;;;;;;;3.50;2.90;;;;;;;;;;5070576;28;20194;-47
2023/02/08 00:08:31;;;;;;;3.20;2.90;;;;;;;;;;5081781;28;20684;-47
2023/02/08 00:11:03;;;;;;;5.83;3.87;;;;;;;;;;5069321;28;20222;-47
2023/02/08 00:13:34;;;;;;;4.30;3.53;;;;;;;;;;5056523;28;20286;-47
2023/02/08 00:16:04;;;;;;;4.27;3.83;;;;;;;;;;5089040;28;20204;-47
2023/02/08 00:18:32;;;;;;;3.87;3.17;;;;;;;;;;5094877;28;20212;-47
2023/02/08 00:21:02;;;;;;;5.57;3.60;;;;;;;;;;5085965;28;20213;-47
2023/02/08 00:23:34;;;;;;;3.33;3.03;;;;;;;;;;5092619;28;20266;-47
2023/02/08 00:26:06;;;;;;;4.10;3.50;;;;;;;;;;5081741;28;20189;-47
2023/02/08 00:28:35;;;;;;;4.17;3.47;;;;;;;;;;5099238;28;20193;-47
2023/02/08 00:31:07;;;;;;;5.00;3.40;;;;;;;;;;5087379;28;20197;-47
2023/02/08 00:33:37;;;;;;;3.33;3.03;;;;;;;;;;5085249;28;20224;-47
2023/02/08 00:36:19;;;;;;;3.80;3.30;;;;;;;;;;5089579;28;20242;-47
2023/02/08 00:38:50;;;;;;;4.37;3.30;;;;;;;;;;5076571;28;20201;-47
2023/02/08 00:41:17;;;;;;;6.43;3.07;;;;;;;;;;5090745;28;20217;-47
2023/02/08 00:43:47;;;;;;;5.07;3.17;;;;;;;;;;5104654;28;20235;-47
2023/02/08 00:46:19;;;;;;;3.87;3.43;;;;;;;;;;5100292;28;20201;-47
2023/02/08 00:48:50;;;;;;;4.40;3.23;;;;;;;;;;5113499;27;20184;-47
2023/02/08 00:51:22;;;;;;;4.37;3.60;;;;;;;;;;5113333;27;20192;-47
2023/02/08 00:53:55;;;;;;;5.60;3.27;;;;;;;;;;5112454;28;20188;-47
2023/02/08 00:56:30;;;;;;;3.10;2.73;;;;;;;;;;5110089;27;20593;-47
2023/02/08 00:59:01;;;;;;;4.80;3.33;;;;;;;;;;5088826;28;20725;-47
2023/02/08 01:01:33;;;;;;;4.87;3.30;;;;;;;;;;5107886;28;20230;-47
2023/02/08 01:04:04;;;;;;;4.23;3.23;;;;;;;;;;5097560;28;20569;-47
2023/02/08 01:06:36;;;;;;;3.83;2.77;;;;;;;;;;5108862;28;20598;-47
2023/02/08 01:09:08;;;;;;;5.70;3.40;;;;;;;;;;5103892;28;20198;-47
2023/02/08 01:11:42;;;;;;;4.63;3.13;;;;;;;;;;5105825;28;20196;-47
2023/02/08 01:14:12;;;;;;;4.97;2.50;;;;;;;;;;5119735;27;20192;-47
2023/02/08 01:16:43;;;;;;;4.00;3.27;;;;;;;;;;5111089;28;20617;-47
2023/02/08 01:19:12;;;;;;;3.97;3.03;;;;;;;;;;5088847;28;20659;-47
2023/02/08 01:21:42;;;;;;;5.27;3.20;;;;;;;;;;5105169;28;20258;-47
2023/02/08 01:24:14;;;;;;;7.07;3.10;;;;;;;;;;5101790;27;20207;-47
2023/02/08 01:26:47;;;;;;;4.23;2.80;;;;;;;;;;5081033;28;20203;-47
2023/02/08 01:29:17;;;;;;;5.33;3.43;;;;;;;;;;5105958;28;20569;-47
2023/02/08 01:31:48;;;;;;;3.87;3.33;;;;;;;;;;5108478;27;20245;-47
2023/02/08 01:34:15;;;;;;;4.23;3.33;;;;;;;;;;5109929;27;20208;-47
2023/02/08 01:36:45;;;;;;;4.07;2.67;;;;;;;;;;5108921;28;20615;-47
2023/02/08 01:39:20;;;;;;;4.23;3.40;;;;;;;;;;5107539;27;20228;-47
2023/02/08 01:41:49;;;;;;;4.13;3.20;;;;;;;;;;5109101;27;20242;-47
2023/02/08 01:44:36;;;;;;;4.30;3.03;;;;;;;;;;5109191;27;20239;-47
2023/02/08 01:47:07;;;;;;;3.33;3.03;;;;;;;;;;5102724;28;20216;-47
2023/02/08 01:49:38;;;;;;;3.37;3.03;;;;;;;;;;5090595;28;20210;-47
2023/02/08 01:52:11;;;;;;;3.67;3.33;;;;;;;;;;5109195;27;20766;-47
2023/02/08 01:54:49;;;;;;;4.30;3.47;;;;;;;;;;5120282;27;20717;-47
2023/02/08 01:57:19;;;;;;;3.70;3.00;;;;;;;;;;5089998;28;20235;-47
2023/02/08 01:59:51;;;;;;;3.00;2.70;;;;;;;;;;5108649;28;20201;-47
2023/02/08 02:02:22;;;;;;;5.07;3.47;;;;;;;;;;5099449;28;20224;-46
2023/02/08 02:04:55;;;;;;;3.43;2.93;;;;;;;;;;5092479;27;20198;-47
2023/02/08 02:07:27;;;;;;;3.20;2.80;;;;;;;;;;5092835;28;20192;-47
2023/02/08 02:10:09;;;;;;;3.50;3.20;;;;;;;;;;5082616;28;20219;-47
2023/02/08 02:12:39;;;;;;;3.93;2.60;;;;;;;;;;5097952;28;20618;-47
2023/02/08 02:15:13;;;;;;;4.70;3.03;;;;;;;;;;5104748;28;20719;-47
2023/02/08 02:17:47;;;;;;;3.87;3.13;;;;;;;;;;5108347;28;20200;-47
2023/02/08 02:20:35;;;;;;;3.70;2.77;;;;;;;;;;5108488;27;20257;-47
2023/02/08 02:23:24;;;;;;;3.90;3.13;;;;;;;;;;5107292;27;20223;-47
2023/02/08 02:25:57;;;;;;;3.93;3.07;;;;;;;;;;5108454;28;20773;-47
2023/02/08 02:28:45;;;;;;;3.27;2.90;;;;;;;;;;5108555;28;20220;-47
2023/02/08 02:31:35;;;;;;;3.70;3.00;;;;;;;;;;5116343;27;20652;-47
2023/02/08 02:34:06;;;;;;;3.70;3.30;;;;;;;;;;5104954;28;20220;-47
2023/02/08 02:37:00;;;;;;;3.80;3.00;;;;;;;;;;5110631;27;20196;-47
2023/02/08 02:39:44;;;;;;;3.77;3.23;;;;;;;;;;5102384;28;20275;-47
2023/02/08 02:45:34;;;;;;;3.73;3.27;;;;;;;;;;5076716;28;20247;-47
2023/02/08 02:48:21;;;;;;;4.17;3.13;;;;;;;;;;5081360;28;20283;-47
2023/02/08 02:50:54;;;;;;;4.30;3.17;;;;;;;;;;5069675;28;20196;-47
2023/02/08 02:53:37;;;;;;;4.23;3.33;;;;;;;;;;5094273;28;20201;-47
2023/02/08 02:56:21;;;;;;;3.13;2.83;;;;;;;;;;5087988;28;20192;-47
2023/02/08 02:58:50;;;;;;;3.00;2.47;;;;;;;;;;5066983;28;20208;-47
2023/02/08 03:01:28;;;;;;;3.63;3.00;;;;;;;;;;5086282;28;20553;-47
2023/02/08 03:04:19;;;;;;;2.80;2.53;;;;;;;;;;5088045;28;20275;-47
2023/02/08 03:07:16;;;;;;;4.77;3.30;;;;;;;;;;5061562;28;20751;-47
2023/02/08 03:10:04;;;;;;;4.83;3.30;;;;;;;;;;5083206;28;20555;-47
2023/02/08 03:12:44;;;;;;;3.43;3.13;;;;;;;;;;5086156;28;20243;-47
2023/02/08 03:15:23;;;;;;;3.63;2.80;;;;;;;;;;5085088;28;20208;-47
2023/02/08 03:18:09;;;;;;;3.63;2.80;;;;;;;;;;5070865;28;20204;-46
2023/02/08 03:20:57;;;;;;;3.83;3.00;;;;;;;;;;5076935;28;20220;-47
2023/02/08 03:23:38;;;;;;;3.70;2.93;;;;;;;;;;5097222;28;20189;-47
2023/02/08 03:26:22;;;;;;;3.73;3.33;;;;;;;;;;5087721;28;20193;-47
2023/02/08 03:29:10;;;;;;;4.50;3.17;;;;;;;;;;5083013;28;20197;-47
2023/02/08 03:32:01;;;;;;;4.03;3.30;;;;;;;;;;5087067;28;20197;-47
2023/02/08 03:34:36;;;;;;;3.73;3.43;;;;;;;;;;5084102;28;20232;-47
2023/02/08 03:37:23;;;;;;;3.17;2.87;;;;;;;;;;5089841;28;20220;-47
2023/02/08 03:40:02;;;;;;;3.80;3.20;;;;;;;;;;5069875;28;20224;-47
2023/02/08 03:42:39;;;;;;;5.50;3.13;;;;;;;;;;5071870;28;20214;-48
2023/02/08 03:45:32;;;;;;;3.77;3.30;;;;;;;;;;5102103;28;20185;-47
2023/02/08 03:48:08;;;;;;;3.23;2.93;;;;;;;;;;5107670;28;20189;-47
2023/02/08 03:50:47;;;;;;;3.80;3.30;;;;;;;;;;5107565;28;20193;-47
2023/02/08 03:53:18;;;;;;;5.40;3.33;;;;;;;;;;5109176;28;20328;-47
2023/02/08 03:55:57;;;;;;;4.13;2.93;;;;;;;;;;5089593;28;20200;-47
2023/02/08 03:58:44;;;;;;;3.40;2.90;;;;;;;;;;5106050;28;20218;-47
2023/02/08 04:01:42;;;;;;;3.60;3.30;;;;;;;;;;5096641;28;20269;-47
2023/02/08 04:04:17;;;;;;;4.40;3.37;;;;;;;;;;5111551;27;20193;-47
2023/02/08 04:06:50;;;;;;;3.40;2.70;;;;;;;;;;5098301;27;20190;-47
2023/02/08 04:09:19;;;;;;;3.93;3.20;;;;;;;;;;5099438;27;20718;-47
2023/02/08 04:11:50;;;;;;;4.47;3.90;;;;;;;;;;5117444;27;20207;-47
2023/02/08 04:14:21;;;;;;;5.03;3.73;;;;;;;;;;5112301;27;20195;-47
2023/02/08 04:16:51;;;;;;;3.47;3.10;;;;;;;;;;5111079;28;20585;-47
2023/02/08 04:19:23;;;;;;;3.63;2.90;;;;;;;;;;5094762;28;20200;-47
2023/02/08 04:21:55;;;;;;;4.13;3.03;;;;;;;;;;5094459;28;20239;-47
2023/02/08 04:24:27;;;;;;;3.43;3.13;;;;;;;;;;5119345;27;20227;-47
2023/02/08 04:26:58;;;;;;;4.37;3.20;;;;;;;;;;5108548;28;20185;-47
2023/02/08 04:29:26;;;;;;;3.80;2.90;;;;;;;;;;5092581;28;20617;-47
2023/02/08 04:31:56;;;;;;;3.30;2.87;;;;;;;;;;5111105;28;20196;-47
2023/02/08 04:34:26;;;;;;;3.17;2.83;;;;;;;;;;5107378;27;20779;-47
2023/02/08 04:36:57;;;;;;;4.97;2.97;;;;;;;;;;5112533;27;20265;-47
2023/02/08 04:39:26;;;;;;;3.33;2.80;;;;;;;;;;5114413;27;20203;-47
2023/02/08 04:41:57;;;;;;;4.40;3.70;;;;;;;;;;5110573;28;20263;-47
2023/02/08 04:44:27;;;;;;;4.67;3.03;;;;;;;;;;5092649;28;20232;-47
2023/02/08 04:47:00;;;;;;;3.83;2.70;;;;;;;;;;5104256;28;20230;-47
2023/02/08 04:49:30;;;;;;;3.90;2.87;;;;;;;;;;5092185;28;20224;-47
2023/02/08 04:52:00;;;;;;;4.30;3.90;;;;;;;;;;5107292;27;20220;-46
2023/02/08 04:54:36;;;;;;;3.60;2.70;;;;;;;;;;5109824;28;20196;-47
2023/02/08 04:57:12;;;;;;;3.50;2.93;;;;;;;;;;5104177;28;20199;-47
2023/02/08 04:59:42;;;;;;;3.73;2.73;;;;;;;;;;5117519;27;20207;-47
2023/02/08 05:02:14;;;;;;;4.83;3.10;;;;;;;;;;5110824;27;20263;-47
2023/02/08 05:04:42;;;;;;;3.23;2.93;;;;;;;;;;5102485;27;20209;-47
2023/02/08 05:07:14;;;;;;;4.40;3.30;;;;;;;;;;5106277;28;20223;-47
2023/02/08 05:09:44;;;;;;;4.10;3.70;;;;;;;;;;5105948;28;20554;-47
2023/02/08 05:12:18;;;;;;;4.83;3.30;;;;;;;;;;5108766;28;20272;-47
2023/02/08 05:14:49;;;;;;;4.23;3.10;;;;;;;;;;5113211;27;20204;-47
2023/02/08 05:17:17;;;;;;;5.43;3.13;;;;;;;;;;5119653;27;20208;-47
2023/02/08 05:19:50;;;;;;;4.53;3.60;;;;;;;;;;5113860;27;20196;-47
2023/02/08 05:22:22;;;;;;;4.10;3.27;;;;;;;;;;5106004;28;20248;-47
2023/02/08 05:24:51;;;;;;;4.47;3.37;;;;;;;;;;5111076;27;20199;-47
2023/02/08 05:27:24;;;;;;;4.67;3.40;;;;;;;;;;5113429;27;20608;-47
2023/02/08 05:29:56;;;;;;;4.97;3.23;;;;;;;;;;5115389;27;20215;-47
2023/02/08 05:32:28;;;;;;;3.53;2.67;;;;;;;;;;5109932;28;20198;-47
2023/02/08 05:35:00;;;;;;;3.67;2.90;;;;;;;;;;5090487;28;20224;-47
2023/02/08 05:37:32;;;;;;;5.13;3.30;;;;;;;;;;5110686;28;20197;-47
2023/02/08 05:40:03;;;;;;;6.30;2.97;;;;;;;;;;5108055;27;20261;-47
2023/02/08 05:42:35;;;;;;;3.67;3.37;;;;;;;;;;5108884;28;20249;-47
2023/02/08 05:45:18;;;;;;;4.17;3.10;;;;;;;;;;5104796;27;20239;-47
2023/02/08 05:47:48;;;;;;;4.37;3.87;;;;;;;;;;5109020;28;20201;-47
2023/02/08 05:50:19;;;;;;;3.63;3.00;;;;;;;;;;5112523;27;20226;-47
2023/02/08 05:52:49;;;;;;;4.13;3.73;;;;;;;;;;5109344;28;20196;-47
2023/02/08 05:55:16;;;;;;;3.60;3.30;;;;;;;;;;5109194;27;20204;-47
2023/02/08 05:57:49;;;;;;;3.90;3.40;;;;;;;;;;5106072;28;20196;-47
2023/02/08 06:00:19;;;;;;;3.37;2.97;;;;;;;;;;5110965;27;20249;-47
2023/02/08 06:02:53;;;;;;;4.03;2.93;;;;;;;;;;5109556;28;20204;-47
2023/02/08 06:05:24;;;;;;;4.23;3.10;;;;;;;;;;5109308;27;20218;-47
2023/02/08 06:07:52;;;;;;;3.80;3.40;;;;;;;;;;5109182;28;20196;-47
2023/02/08 06:10:27;;;;;;;3.77;3.20;;;;;;;;;;5106876;27;20214;-47
2023/02/08 06:12:58;;;;;;;4.87;3.40;;;;;;;;;;5114126;27;20211;-47
2023/02/08 06:15:27;;;;;;;3.63;2.93;;;;;;;;;;5108688;27;20257;-47
2023/02/08 06:17:57;;;;;;;4.63;3.27;;;;;;;;;;5112455;27;20203;-47
2023/02/08 06:20:28;;;;;;;18.43;4.50;;;;;;;;;;5111630;27;20193;-47
2023/02/08 06:22:59;;;;;;;4.50;3.63;;;;;;;;;;5105207;27;20284;-47
2023/02/08 06:25:31;;;;;;;4.90;3.53;;;;;;;;;;5099459;28;20591;-47
2023/02/08 06:28:03;;;;;;;4.50;3.63;;;;;;;;;;5108636;28;20542;-47
2023/02/08 06:30:33;;;;;;;4.27;3.50;;;;;;;;;;5117627;27;20637;-47
2023/02/08 06:33:06;;;;;;;4.60;3.63;;;;;;;;;;5109370;27;20196;-47
2023/02/08 06:35:38;;;;;;;4.40;3.73;;;;;;;;;;5109221;28;20563;-47
2023/02/08 06:38:15;;;;;;;3.67;3.27;;;;;;;;;;5108729;28;20683;-47
2023/02/08 06:40:49;;;;;;;4.57;3.50;;;;;;;;;;5088723;28;20200;-47
2023/02/08 06:43:18;;;;;;;5.20;3.53;;;;;;;;;;5086737;28;20232;-47
2023/02/08 06:45:48;;;;;;;4.00;3.60;;;;;;;;;;5085863;28;20609;-47
2023/02/08 06:48:18;;;;;;;4.50;3.80;;;;;;;;;;5087551;28;20204;-47
2023/02/08 06:50:48;;;;;;;3.83;3.43;;;;;;;;;;5084195;28;20193;-47
2023/02/08 06:53:18;;;;;;;4.33;3.93;;;;;;;;;;5085418;28;20193;-47
2023/02/08 06:55:51;;;;;;;5.53;3.53;;;;;;;;;;5090112;28;20180;-47
2023/02/08 06:58:21;;;;;;;6.70;4.10;;;;;;;;;;5086788;28;20226;-47
2023/02/08 07:00:51;;;;;;;13.17;4.57;;;;;;;;;;5086018;28;20197;-47
2023/02/08 07:03:24;;;;;;;10.87;4.73;;;;;;;;;;5092715;28;20212;-47
2023/02/08 07:05:55;;;;;;;6.83;3.70;;;;;;;;;;5087251;28;20251;-47
2023/02/08 07:08:34;;;;;;;6.10;4.13;;;;;;;;;;5092415;28;20188;-47
2023/02/08 07:11:08;;;;;;;8.57;4.33;;;;;;;;;;5081166;28;20622;-47
2023/02/08 07:13:37;;;;;;;7.67;4.07;;;;;;;;;;5088215;28;20274;-47
2023/02/08 07:16:07;;;;;;;6.97;4.27;;;;;;;;;;5092548;28;20184;-47
2023/02/08 07:18:48;;;;;;;8.00;4.30;;;;;;;;;;5079540;28;20312;-47
2023/02/08 07:21:20;;;;;;;7.10;4.10;;;;;;;;;;5082968;28;20224;-47
2023/02/08 07:24:16;;;;;;;8.67;3.83;;;;;;;;;;5088801;28;20192;-47
2023/02/08 07:26:46;;;;;;;5.53;4.40;;;;;;;;;;5088071;28;20264;-47
2023/02/08 07:29:19;;;;;;;7.73;4.10;;;;;;;;;;5085665;28;20273;-47
2023/02/08 07:31:51;;;;;;;10.33;4.43;;;;;;;;;;5092969;28;20205;-47
2023/02/08 07:34:22;;;;;;;6.40;3.60;;;;;;;;;;5095227;28;20204;-47
2023/02/08 07:36:57;;;;;;;6.73;3.90;;;;;;;;;;5089965;28;20243;-47
2023/02/08 07:39:30;;;;;;;9.17;4.43;;;;;;;;;;5081811;28;20192;-47
2023/02/08 07:42:01;;;;;;;7.80;4.50;;;;;;;;;;5089356;28;20544;-44
2023/02/08 07:44:31;;;;;;;6.87;4.73;;;;;;;;;;5112169;27;20303;-43
2023/02/08 07:47:12;;;;;;;7.20;4.77;;;;;;;;;;5107142;27;20263;-43
2023/02/08 07:49:43;;;;;;;5.87;4.20;;;;;;;;;;5110199;27;20196;-43
2023/02/08 07:52:15;;;;;;;6.13;4.30;;;;;;;;;;5107330;27;20211;-43
2023/02/08 07:54:47;;;;;;;6.50;4.20;;;;;;;;;;5110973;28;20200;-43
2023/02/08 07:57:20;;;;;;;7.70;4.73;;;;;;;;;;5107632;27;20731;-44
2023/02/08 07:59:52;;;;;;;8.60;4.80;;;;;;;;;;5094347;27;20196;-43
2023/02/08 08:02:22;;;;;;;7.00;4.03;;;;;;;;;;5114666;27;20762;-43
2023/02/08 08:05:07;;;;;;;7.00;4.17;;;;;;;;;;5102443;28;20207;-43
2023/02/08 08:07:38;;;;;;;7.43;4.47;;;;;;;;;;5094170;28;20199;-43
2023/02/08 08:10:09;;;;;;;65.93;16.17;;;;;;;;;;5107065;28;20645;-44
2023/02/08 08:12:39;;;;;;;110.93;20.93;;;;;;;;;;5110019;27;20201;-44
2023/02/08 08:15:08;;;;;;;70.57;17.47;;;;;;;;;;5111029;27;20195;-43
2023/02/08 08:17:40;;;;;;;68.63;16.67;;;;;;;;;;5112430;27;20205;-43
2023/02/08 08:20:13;;;;;;;50.27;15.43;;;;;;;;;;5093960;28;20199;-43
2023/02/08 08:22:43;;;;;;;48.43;14.20;;;;;;;;;;5107317;28;20228;-43
2023/02/08 08:25:11;;;;;;;39.77;12.90;;;;;;;;;;5108880;28;20285;-43
2023/02/08 08:27:41;;;;;;;36.47;11.60;;;;;;;;;;5117696;27;20186;-43
2023/02/08 08:30:15;;;;;;;31.37;10.70;;;;;;;;;;5105133;27;20782;-44
2023/02/08 08:32:44;;;;;;;27.60;9.90;;;;;;;;;;5093151;28;20192;-43
2023/02/08 08:35:13;;;;;;;25.40;9.73;;;;;;;;;;5104159;28;20665;-43
2023/02/08 08:37:45;;;;;;;25.47;9.30;;;;;;;;;;5101357;28;20205;-43
2023/02/08 08:40:14;;;;;;;26.47;9.47;;;;;;;;;;5110370;28;20196;-43
2023/02/08 08:42:46;;;;;;;23.80;8.40;;;;;;;;;;5113236;27;20571;-43
2023/02/08 08:45:16;;;;;;;16.80;8.17;;;;;;;;;;5095074;28;20554;-43
2023/02/08 08:47:48;;;;;;;16.27;7.80;;;;;;;;;;5110100;27;20181;-43
2023/02/08 08:50:20;;;;;;;22.00;8.00;;;;;;;;;;5109596;28;20240;-43
2023/02/08 08:52:51;;;;;;;14.00;7.40;;;;;;;;;;5119606;27;20188;-43
2023/02/08 08:55:22;;;;;;;13.50;7.03;;;;;;;;;;5110198;28;20207;-43
2023/02/08 08:57:52;;;;;;;20.43;7.77;;;;;;;;;;5085321;28;20542;-43
2023/02/08 09:00:23;;;;;;;13.70;6.40;;;;;;;;;;5088603;28;20212;-43
2023/02/08 09:02:54;;;;;;;14.40;6.93;;;;;;;;;;5115537;27;20226;-43
2023/02/08 09:05:37;;;;;;;10.30;6.33;;;;;;;;;;5094718;28;20220;-43
2023/02/08 09:08:09;;;;;;;9.73;6.70;;;;;;;;;;5110868;28;20202;-43
2023/02/08 09:10:40;;;;;;;12.53;6.60;;;;;;;;;;5105877;28;20201;-43
2023/02/08 09:13:18;;;;;;;10.73;6.30;;;;;;;;;;5100651;27;20201;-43
2023/02/08 09:15:53;;;;;;;11.43;6.47;;;;;;;;;;5108329;28;20215;-44
2023/02/08 09:18:36;;;;;;;11.90;6.73;;;;;;;;;;5095761;27;20193;-44
2023/02/08 09:21:13;;;;;;;9.70;6.13;;;;;;;;;;5098583;28;20234;-45
2023/02/08 09:23:48;;;;;;;14.17;6.20;;;;;;;;;;5093142;28;20559;-46
2023/02/08 09:26:19;;;;;;;8.30;5.43;;;;;;;;;;5095518;28;20207;-46
2023/02/08 09:28:52;;;;;;;9.03;5.10;;;;;;;;;;5107605;27;20184;-47
2023/02/08 09:31:25;;;;;;;6.77;4.50;;;;;;;;;;5091135;28;20866;-45
2023/02/08 09:33:57;;;;;;;11.37;4.80;;;;;;;;;;5087927;28;20204;-45
2023/02/08 09:36:27;;;;;;;6.67;4.77;;;;;;;;;;5101698;27;20660;-45
2023/02/08 09:39:00;;;;;;;8.27;4.60;;;;;;;;;;5110711;27;20265;-45
2023/02/08 09:41:46;;;;;;;8.87;4.73;;;;;;;;;;5111793;27;20221;-48
2023/02/08 09:44:37;;;;;;;7.30;4.60;;;;;;;;;;5110564;27;20285;-48
2023/02/08 09:47:27;;;;;;;6.70;4.53;;;;;;;;;;5102956;27;20660;-48
2023/02/08 09:50:13;;;;;;;6.03;5.00;;;;;;;;;;5097826;28;20758;-48
2023/02/08 09:52:50;;;;;;;7.17;4.37;;;;;;;;;;5115971;27;20192;-45
2023/02/08 09:55:35;;;;;;;7.13;4.27;;;;;;;;;;5121424;27;20207;-45
2023/02/08 09:58:08;;;;;;;5.57;4.10;;;;;;;;;;5106389;27;20224;-50
2023/02/08 10:00:46;;;;;;;5.80;4.37;;;;;;;;;;5105286;28;20629;-46
2023/02/08 10:03:40;;;;;;;5.50;3.50;;;;;;;;;;5112680;27;20302;-46
2023/02/08 10:06:11;;;;;;;5.27;4.10;;;;;;;;;;5094275;28;20200;-49
2023/02/08 10:08:39;;;;;;;7.83;3.70;;;;;;;;;;5108920;27;20201;-49
2023/02/08 10:11:28;;;;;;;5.47;3.77;;;;;;;;;;5101939;27;20219;-45
2023/02/08 10:14:03;;;;;;;5.63;3.77;;;;;;;;;;5117000;27;20859;-45
2023/02/08 10:16:51;;;;;;;4.63;3.83;;;;;;;;;;5111642;27;20223;-45
2023/02/08 10:19:25;;;;;;;5.03;3.63;;;;;;;;;;5107992;27;20204;-46
2023/02/08 10:22:19;;;;;;;7.37;3.80;;;;;;;;;;5106008;27;20215;-51
2023/02/08 10:24:49;;;;;;;3.73;3.17;;;;;;;;;;5107760;27;20319;-49
2023/02/08 10:27:36;;;;;;;4.30;3.30;;;;;;;;;;5083007;28;20736;-47
2023/02/08 10:30:25;;;;;;;3.80;2.97;;;;;;;;;;5090895;28;20196;-50
2023/02/08 10:32:59;;;;;;;4.30;3.23;;;;;;;;;;5100505;27;20211;-50
2023/02/08 10:35:38;;;;;;;3.97;3.17;;;;;;;;;;5113508;27;20200;-46
2023/02/08 10:38:26;;;;;;;3.93;3.13;;;;;;;;;;5109011;27;20196;-46
2023/02/08 10:41:10;;;;;;;3.97;2.90;;;;;;;;;;5107355;28;20687;-46
2023/02/08 10:43:46;;;;;;;3.17;2.87;;;;;;;;;;5108351;28;20224;-45
2023/02/08 10:46:33;;;;;;;3.50;3.20;;;;;;;;;;5110458;27;20211;-46
2023/02/08 10:49:09;;;;;;;5.07;3.23;;;;;;;;;;5109618;27;20649;-46
2023/02/08 10:51:42;;;;;;;3.23;2.90;;;;;;;;;;5101057;28;20616;-50
2023/02/08 10:54:13;;;;;;;3.87;2.83;;;;;;;;;;5091368;28;20192;-50
2023/02/08 10:56:50;;;;;;;2.70;2.50;;;;;;;;;;5111821;28;20200;-50
2023/02/08 10:59:23;;;;;;;2.90;2.60;;;;;;;;;;5103681;28;20219;-49
2023/02/08 11:02:02;;;;;;;3.17;2.80;;;;;;;;;;5110008;28;20299;-49
2023/02/08 11:04:32;;;;;;;3.03;2.70;;;;;;;;;;5091496;28;20726;-49
2023/02/08 11:07:22;;;;;;;2.97;2.67;;;;;;;;;;5093657;28;20222;-50
2023/02/08 11:10:19;;;;;;;3.47;2.77;;;;;;;;;;5096417;27;20674;-50
2023/02/08 11:12:58;;;;;;;3.73;2.77;;;;;;;;;;5108223;27;20192;-50
2023/02/08 11:15:36;;;;;;;3.80;2.80;;;;;;;;;;5109831;28;20202;-49
2023/02/08 11:18:08;;;;;;;3.03;2.73;;;;;;;;;;5105602;27;20211;-50
2023/02/08 11:20:39;;;;;;;3.43;2.83;;;;;;;;;;5097808;27;20226;-49
2023/02/08 11:23:22;;;;;;;3.30;2.60;;;;;;;;;;5092373;28;20262;-49
2023/02/08 11:25:54;;;;;;;3.60;3.00;;;;;;;;;;5096545;28;20199;-46
2023/02/08 11:28:28;;;;;;;3.20;2.77;;;;;;;;;;5104627;27;20193;-45
2023/02/08 11:31:01;;;;;;;3.40;2.80;;;;;;;;;;5091767;28;20191;-46
2023/02/08 11:33:34;;;;;;;3.00;2.70;;;;;;;;;;5088640;27;20202;-45
2023/02/08 11:36:12;;;;;;;3.17;2.80;;;;;;;;;;5111081;28;20633;-46
2023/02/08 11:38:44;;;;;;;3.43;2.77;;;;;;;;;;5093771;28;20215;-46
2023/02/08 11:41:18;;;;;;;3.03;2.73;;;;;;;;;;5116737;27;20670;-49
2023/02/08 11:43:55;;;;;;;3.67;3.03;;;;;;;;;;5107083;27;20872;-49
2023/02/08 11:46:29;;;;;;;3.37;3.00;;;;;;;;;;5106795;27;20949;-49
2023/02/08 11:48:58;;;;;;;3.50;3.00;;;;;;;;;;5108239;28;20657;-49
2023/02/08 11:51:36;;;;;;;3.53;2.80;;;;;;;;;;5111742;28;20223;-49
2023/02/08 11:54:06;;;;;;;3.03;2.57;;;;;;;;;;5111163;27;20227;-49
2023/02/08 11:56:39;;;;;;;2.67;2.47;;;;;;;;;;5111481;28;20200;-49
2023/02/08 11:59:14;;;;;;;3.77;2.80;;;;;;;;;;5106052;27;20212;-49
2023/02/08 12:01:43;;;;;;;3.10;2.80;;;;;;;;;;5099678;27;20203;-48
2023/02/08 12:04:20;;;;;;;5.17;3.10;;;;;;;;;;5094143;28;20269;-48
2023/02/08 12:07:08;;;;;;;4.10;3.40;;;;;;;;;;5113780;27;20233;-49
2023/02/08 12:10:15;;;;;;;3.33;2.80;;;;;;;;;;5115705;27;20272;-48
2023/02/08 12:12:49;;;;;;;3.67;2.67;;;;;;;;;;5030014;28;20219;-49
2023/02/08 12:15:18;;;;;;;3.20;2.50;;;;;;;;;;5027320;28;20230;-46
2023/02/08 12:18:01;;;;;;;3.33;2.73;;;;;;;;;;5026448;28;20222;-44
2023/02/08 12:20:45;;;;;;;3.57;2.50;;;;;;;;;;5020411;28;20216;-49
2023/02/08 12:23:36;;;;;;;3.00;2.70;;;;;;;;;;5026507;28;20211;-49
2023/02/08 12:26:24;;;;;;;2.97;2.67;;;;;;;;;;5026819;28;20285;-49
2023/02/08 12:29:10;;;;;;;3.00;2.70;;;;;;;;;;5024771;28;20191;-49
2023/02/08 12:31:53;;;;;;;4.27;2.23;;;;;;;;;;5027935;28;20195;-46
2023/02/08 12:34:29;;;;;;;2.63;2.43;;;;;;;;;;5026592;28;20219;-46
2023/02/08 12:43:16;;;;;;;3.80;2.93;;;;;;;;;;5113076;27;20736;-46
2023/02/08 12:46:02;;;;;;;4.10;2.80;;;;;;;;;;5107865;27;20258;-45
2023/02/08 12:48:56;;;;;;;2.40;2.20;;;;;;;;;;5093154;28;20624;-45
2023/02/08 12:51:30;;;;;;;3.23;2.60;;;;;;;;;;5106790;28;20184;-46
2023/02/08 12:54:21;;;;;;;4.10;2.70;;;;;;;;;;5121177;27;20573;-46
2023/02/08 12:56:58;;;;;;;2.73;2.33;;;;;;;;;;5097837;28;20204;-45
2023/02/08 12:59:42;;;;;;;3.07;2.33;;;;;;;;;;5106194;27;20199;-46
2023/02/08 13:02:26;;;;;;;3.30;2.60;;;;;;;;;;5092306;28;20189;-46
2023/02/08 13:04:59;;;;;;;2.73;2.20;;;;;;;;;;5090871;28;20216;-46
2023/02/08 13:07:33;;;;;;;2.50;2.23;;;;;;;;;;5088867;28;20203;-46
2023/02/08 13:10:28;;;;;;;3.70;2.57;;;;;;;;;;5109908;27;20216;-46
2023/02/08 13:13:02;;;;;;;2.97;2.27;;;;;;;;;;5090030;28;20237;-49
2023/02/08 13:15:50;;;;;;;3.00;2.70;;;;;;;;;;5109437;27;20747;-49
2023/02/08 13:18:27;;;;;;;4.47;2.23;;;;;;;;;;5076749;27;20638;-49
2023/02/08 13:21:19;;;;;;;2.80;2.43;;;;;;;;;;5107638;27;20291;-49
2023/02/08 13:23:50;;;;;;;3.33;2.30;;;;;;;;;;5110042;27;20281;-50
2023/02/08 13:26:27;;;;;;;2.63;2.23;;;;;;;;;;5096278;28;20223;-49
2023/02/08 13:29:16;;;;;;;2.40;2.17;;;;;;;;;;5092038;28;20224;-49
2023/02/08 13:31:47;;;;;;;2.73;2.53;;;;;;;;;;5109086;28;20506;-49
2023/02/08 13:34:33;;;;;;;2.93;1.97;;;;;;;;;;5100602;28;20652;-49
2023/02/08 13:37:19;;;;;;;3.33;2.30;;;;;;;;;;5101513;27;20609;-49
2023/02/08 13:40:02;;;;;;;2.93;2.10;;;;;;;;;;5121704;27;20211;-49
2023/02/08 13:42:36;;;;;;;2.63;2.10;;;;;;;;;;5099015;27;20200;-49
2023/02/08 13:45:08;;;;;;;3.03;2.43;;;;;;;;;;5104437;28;20239;-48
2023/02/08 13:47:48;;;;;;;5.50;2.50;;;;;;;;;;5091482;28;20584;-49
2023/02/08 13:50:36;;;;;;;2.37;2.03;;;;;;;;;;5108851;27;20192;-49
2023/02/08 13:53:13;;;;;;;2.47;2.27;;;;;;;;;;5104908;27;20192;-48
2023/02/08 13:56:04;;;;;;;2.27;1.93;;;;;;;;;;5117799;27;20203;-48
2023/02/08 13:59:00;;;;;;;2.00;1.80;;;;;;;;;;5105114;28;20204;-49
2023/02/08 14:01:35;;;;;;;3.10;2.10;;;;;;;;;;5106068;27;20257;-50
2023/02/08 14:04:12;;;;;;;2.33;2.00;;;;;;;;;;5092089;28;20247;-49
2023/02/08 14:06:59;;;;;;;2.77;2.17;;;;;;;;;;5109475;27;20188;-48
2023/02/08 14:09:40;;;;;;;3.97;2.60;;;;;;;;;;5102968;28;20269;-48
2023/02/08 14:12:13;;;;;;;2.80;2.20;;;;;;;;;;5110398;27;20580;-46
2023/02/08 14:15:06;;;;;;;2.67;2.00;;;;;;;;;;5109178;28;20215;-45
2023/02/08 14:17:36;;;;;;;3.63;2.03;;;;;;;;;;5091421;28;20277;-49
2023/02/08 14:20:08;;;;;;;3.13;1.90;;;;;;;;;;5091594;28;20205;-49
2023/02/08 14:22:50;;;;;;;2.30;1.93;;;;;;;;;;5099839;27;20219;-49
2023/02/08 14:25:30;;;;;;;2.33;1.70;;;;;;;;;;5107463;28;20212;-49
2023/02/08 14:28:41;;;;;;;3.43;2.00;;;;;;;;;;5106076;28;20274;-48
2023/02/08 14:31:14;;;;;;;1.90;1.67;;;;;;;;;;5100182;27;20299;-48
2023/02/08 14:33:56;;;;;;;2.57;1.70;;;;;;;;;;5104710;28;20208;-48
2023/02/08 14:36:38;;;;;;;1.90;1.70;;;;;;;;;;5110237;27;20192;-48
2023/02/08 14:39:25;;;;;;;1.63;1.53;;;;;;;;;;5106119;28;20230;-48
2023/02/08 14:41:59;;;;;;;3.77;1.90;;;;;;;;;;5106640;27;20185;-48
2023/02/08 14:44:46;;;;;;;1.90;1.70;;;;;;;;;;5107424;28;20228;-48
2023/02/08 14:47:30;;;;;;;2.17;1.90;;;;;;;;;;5105925;27;20262;-48
2023/02/08 14:50:15;;;;;;;2.00;1.60;;;;;;;;;;5107455;28;20192;-48
2023/02/08 14:53:14;;;;;;;2.07;1.80;;;;;;;;;;5122627;27;20269;-48
2023/02/08 14:56:19;;;;;;;1.80;1.57;;;;;;;;;;5107057;28;20756;-45
2023/02/08 14:59:13;;;;;;;2.60;1.60;;;;;;;;;;5049016;28;20208;-45
2023/02/08 15:01:48;;;;;;;1.77;1.43;;;;;;;;;;5105173;28;20208;-46
2023/02/08 15:04:22;;;;;;;4.93;1.63;;;;;;;;;;5108611;28;20211;-45
2023/02/08 15:07:16;;;;;;;1.93;1.57;;;;;;;;;;5095168;28;20223;-46
2023/02/08 15:09:47;;;;;;;2.23;1.80;;;;;;;;;;5103061;28;20220;-45
2023/02/08 15:12:32;;;;;;;1.43;1.30;;;;;;;;;;5090768;28;20205;-45
2023/02/08 15:15:22;;;;;;;2.17;1.57;;;;;;;;;;5100513;28;20324;-45
2023/02/08 15:17:54;;;;;;;3.30;1.50;;;;;;;;;;5108883;28;20531;-49
2023/02/08 15:20:31;;;;;;;4.20;1.40;;;;;;;;;;5110867;28;20643;-46
2023/02/08 15:23:22;;;;;;;1.30;1.20;;;;;;;;;;5102572;28;20247;-45
2023/02/08 15:26:06;;;;;;;1.63;1.37;;;;;;;;;;5108187;28;20206;-45
2023/02/08 15:28:49;;;;;;;1.90;1.67;;;;;;;;;;5109501;28;20228;-45
2023/02/08 15:31:21;;;;;;;1.53;1.30;;;;;;;;;;5101058;28;20253;-48
2023/02/08 15:33:53;;;;;;;2.97;1.30;;;;;;;;;;5087359;28;20204;-48
2023/02/08 15:36:30;;;;;;;2.47;1.50;;;;;;;;;;5107077;28;21610;-45
2023/02/08 15:39:10;;;;;;;2.23;1.63;;;;;;;;;;5113362;28;20206;-45
2023/02/08 15:41:43;;;;;;;1.67;1.27;;;;;;;;;;5089772;28;20191;-45
2023/02/08 15:44:19;;;;;;;1.30;1.20;;;;;;;;;;5107963;28;20240;-46